sensor_id;sensor_type;location;lat;lon;timestamp;pressure;altitude;pressure_sealevel;temperature;humidity
60437;BME280;46289;51.992;4.498;2024-03-02T00:00:36;99798.31;;;5.83;100.00
60437;BME280;46289;51.992;4.498;2024-03-02T00:02:42;99798.56;;;5.77;100.00
60437;BME280;46289;51.992;4.498;2024-03-02T00:04:46;99801.88;;;5.80;100.00
60437;BME280;46289;51.992;4.498;2024-03-02T00:06:52;99801.22;;;5.75;100.00
60437;BME280;46289;51.992;4.498;2024-03-02T00:08:58;99806.38;;;5.77;100.00
60437;BME280;46289;51.992;4.498;2024-03-02T00:11:03;99808.22;;;5.73;100.00
60437;BME280;46289;51.992;4.498;2024-03-02T00:13:09;99818.81;;;5.68;100.00
60437;BME280;46289;51.992;4.498;2024-03-02T00:15:33;99815.53;;;5.63;100.00
60437;BME280;46289;51.992;4.498;2024-03-02T00:17:41;99820.00;;;5.60;100.00
60437;BME280;46289;51.992;4.498;2024-03-02T00:19:50;99825.19;;;5.61;100.00
60437;BME280;46289;51.992;4.498;2024-03-02T00:21:52;99830.41;;;5.61;100.00
60437;BME280;46289;51.992;4.498;2024-03-02T00:23:58;99825.91;;;5.65;100.00
60437;BME280;46289;51.992;4.498;2024-03-02T00:26:04;99827.78;;;5.61;100.00
60437;BME280;46289;51.992;4.498;2024-03-02T00:28:16;99827.16;;;5.55;100.00
60437;BME280;46289;51.992;4.498;2024-03-02T00:30:43;99824.50;;;5.56;100.00
60437;BME280;46289;51.992;4.498;2024-03-02T00:32:52;99823.66;;;5.56;100.00
60437;BME280;46289;51.992;4.498;2024-03-02T00:34:59;99819.56;;;5.48;100.00
60437;BME280;46289;51.992;4.498;2024-03-02T00:37:05;99817.69;;;5.52;100.00
60437;BME280;46289;51.992;4.498;2024-03-02T00:39:11;99819.50;;;5.50;100.00
60437;BME280;46289;51.992;4.498;2024-03-02T00:41:20;99829.22;;;5.45;100.00
60437;BME280;46289;51.992;4.498;2024-03-02T00:43:42;99820.44;;;5.47;100.00
60437;BME280;46289;51.992;4.498;2024-03-02T00:45:49;99817.84;;;5.47;100.00
60437;BME280;46289;51.992;4.498;2024-03-02T00:47:54;99811.59;;;5.53;100.00
60437;BME280;46289;51.992;4.498;2024-03-02T00:50:02;99818.81;;;5.45;100.00
60437;BME280;46289;51.992;4.498;2024-03-02T00:52:20;99822.31;;;5.44;100.00
60437;BME280;46289;51.992;4.498;2024-03-02T00:54:29;99815.44;;;5.43;100.00
60437;BME280;46289;51.992;4.498;2024-03-02T00:56:35;99824.94;;;5.44;100.00
60437;BME280;46289;51.992;4.498;2024-03-02T00:58:40;99824.00;;;5.45;100.00
60437;BME280;46289;51.992;4.498;2024-03-02T01:00:43;99826.03;;;5.37;100.00
60437;BME280;46289;51.992;4.498;2024-03-02T01:02:48;99832.91;;;5.39;100.00
60437;BME280;46289;51.992;4.498;2024-03-02T01:04:54;99819.09;;;5.37;100.00
60437;BME280;46289;51.992;4.498;2024-03-02T01:07:02;99813.91;;;5.37;100.00
60437;BME280;46289;51.992;4.498;2024-03-02T01:09:07;99813.13;;;5.34;100.00
60437;BME280;46289;51.992;4.498;2024-03-02T01:11:14;99819.38;;;5.30;100.00
60437;BME280;46289;51.992;4.498;2024-03-02T01:13:17;99808.94;;;5.30;100.00
60437;BME280;46289;51.992;4.498;2024-03-02T01:15:22;99802.81;;;5.31;100.00
60437;BME280;46289;51.992;4.498;2024-03-02T01:17:27;99811.34;;;5.36;100.00
60437;BME280;46289;51.992;4.498;2024-03-02T01:19:32;99816.75;;;5.30;100.00
60437;BME280;46289;51.992;4.498;2024-03-02T01:21:37;99831.38;;;5.34;100.00
60437;BME280;46289;51.992;4.498;2024-03-02T01:23:45;99830.63;;;5.30;100.00
60437;BME280;46289;51.992;4.498;2024-03-02T01:25:51;99832.47;;;5.26;100.00
60437;BME280;46289;51.992;4.498;2024-03-02T01:27:53;99825.31;;;5.33;100.00
60437;BME280;46289;51.992;4.498;2024-03-02T01:29:58;99832.44;;;5.28;100.00
60437;BME280;46289;51.992;4.498;2024-03-02T01:32:04;99854.97;;;5.29;100.00
60437;BME280;46289;51.992;4.498;2024-03-02T01:34:09;99860.13;;;5.31;100.00
60437;BME280;46289;51.992;4.498;2024-03-02T01:36:14;99858.44;;;5.30;100.00
60437;BME280;46289;51.992;4.498;2024-03-02T01:38:19;99842.59;;;5.36;100.00
60437;BME280;46289;51.992;4.498;2024-03-02T01:40:24;99823.78;;;5.27;100.00
60437;BME280;46289;51.992;4.498;2024-03-02T01:42:30;99826.38;;;5.27;100.00
60437;BME280;46289;51.992;4.498;2024-03-02T01:44:35;99844.50;;;5.31;100.00
60437;BME280;46289;51.992;4.498;2024-03-02T01:46:37;99833.34;;;5.27;100.00
60437;BME280;46289;51.992;4.498;2024-03-02T01:48:42;99828.28;;;5.22;100.00
60437;BME280;46289;51.992;4.498;2024-03-02T01:50:47;99832.59;;;5.23;100.00
60437;BME280;46289;51.992;4.498;2024-03-02T01:52:52;99847.22;;;5.27;100.00
60437;BME280;46289;51.992;4.498;2024-03-02T01:54:55;99846.53;;;5.22;100.00
60437;BME280;46289;51.992;4.498;2024-03-02T01:57:04;99844.63;;;5.27;100.00
60437;BME280;46289;51.992;4.498;2024-03-02T01:59:06;99849.13;;;5.22;100.00
60437;BME280;46289;51.992;4.498;2024-03-02T02:01:11;99853.59;;;5.19;100.00
60437;BME280;46289;51.992;4.498;2024-03-02T02:03:16;99851.69;;;5.24;100.00
60437;BME280;46289;51.992;4.498;2024-03-02T02:05:22;99851.72;;;5.22;100.00
60437;BME280;46289;51.992;4.498;2024-03-02T02:07:27;99848.22;;;5.23;100.00
60437;BME280;46289;51.992;4.498;2024-03-02T02:09:32;99855.91;;;5.26;100.00
60437;BME280;46289;51.992;4.498;2024-03-02T02:11:37;99848.91;;;5.28;100.00
60437;BME280;46289;51.992;4.498;2024-03-02T02:13:44;99855.84;;;5.30;100.00
60437;BME280;46289;51.992;4.498;2024-03-02T02:15:49;99850.56;;;5.31;100.00
60437;BME280;46289;51.992;4.498;2024-03-02T02:17:56;99854.19;;;5.27;100.00
60437;BME280;46289;51.992;4.498;2024-03-02T02:20:01;99859.31;;;5.28;100.00
60437;BME280;46289;51.992;4.498;2024-03-02T02:22:09;99861.81;;;5.32;100.00
60437;BME280;46289;51.992;4.498;2024-03-02T02:24:14;99864.44;;;5.32;100.00
60437;BME280;46289;51.992;4.498;2024-03-02T02:26:19;99872.16;;;5.35;100.00
60437;BME280;46289;51.992;4.498;2024-03-02T02:28:25;99866.84;;;5.38;100.00
60437;BME280;46289;51.992;4.498;2024-03-02T02:30:31;99864.38;;;5.33;100.00
60437;BME280;46289;51.992;4.498;2024-03-02T02:32:37;99867.91;;;5.32;100.00
60437;BME280;46289;51.992;4.498;2024-03-02T02:34:39;99862.69;;;5.32;100.00
60437;BME280;46289;51.992;4.498;2024-03-02T02:36:44;99866.16;;;5.33;100.00
60437;BME280;46289;51.992;4.498;2024-03-02T02:38:52;99861.78;;;5.33;100.00
60437;BME280;46289;51.992;4.498;2024-03-02T02:40:55;99864.34;;;5.35;100.00
60437;BME280;46289;51.992;4.498;2024-03-02T02:43:00;99850.41;;;5.36;100.00
60437;BME280;46289;51.992;4.498;2024-03-02T02:45:06;99848.72;;;5.35;100.00
60437;BME280;46289;51.992;4.498;2024-03-02T02:47:11;99850.41;;;5.36;100.00
60437;BME280;46289;51.992;4.498;2024-03-02T02:49:19;99850.44;;;5.34;100.00
60437;BME280;46289;51.992;4.498;2024-03-02T02:51:28;99856.53;;;5.35;100.00
60437;BME280;46289;51.992;4.498;2024-03-02T02:53:33;99847.25;;;5.26;100.00
60437;BME280;46289;51.992;4.498;2024-03-02T02:55:44;99853.28;;;5.28;100.00
60437;BME280;46289;51.992;4.498;2024-03-02T02:57:50;99860.94;;;5.33;100.00
60437;BME280;46289;51.992;4.498;2024-03-02T02:59:58;99853.13;;;5.33;100.00
60437;BME280;46289;51.992;4.498;2024-03-02T03:02:03;99859.41;;;5.27;100.00
60437;BME280;46289;51.992;4.498;2024-03-02T03:04:08;99856.63;;;5.32;100.00
60437;BME280;46289;51.992;4.498;2024-03-02T03:06:13;99853.13;;;5.33;100.00
60437;BME280;46289;51.992;4.498;2024-03-02T03:08:18;99865.31;;;5.32;100.00
60437;BME280;46289;51.992;4.498;2024-03-02T03:10:25;99857.50;;;5.32;100.00
60437;BME280;46289;51.992;4.498;2024-03-02T03:12:33;99859.22;;;5.32;100.00
60437;BME280;46289;51.992;4.498;2024-03-02T03:14:35;99862.59;;;5.35;100.00
60437;BME280;46289;51.992;4.498;2024-03-02T03:16:40;99862.50;;;5.37;100.00
60437;BME280;46289;51.992;4.498;2024-03-02T03:18:45;99868.50;;;5.40;100.00
60437;BME280;46289;51.992;4.498;2024-03-02T03:20:48;99862.38;;;5.41;100.00
60437;BME280;46289;51.992;4.498;2024-03-02T03:22:52;99866.63;;;5.44;100.00
60437;BME280;46289;51.992;4.498;2024-03-02T03:24:57;99868.38;;;5.43;100.00
60437;BME280;46289;51.992;4.498;2024-03-02T03:27:02;99863.06;;;5.46;100.00
60437;BME280;46289;51.992;4.498;2024-03-02T03:29:10;99863.91;;;5.47;100.00
60437;BME280;46289;51.992;4.498;2024-03-02T03:31:15;99865.63;;;5.48;100.00
60437;BME280;46289;51.992;4.498;2024-03-02T03:33:20;99861.28;;;5.47;100.00
60437;BME280;46289;51.992;4.498;2024-03-02T03:35:25;99873.44;;;5.48;100.00
60437;BME280;46289;51.992;4.498;2024-03-02T03:37:33;99868.16;;;5.49;100.00
60437;BME280;46289;51.992;4.498;2024-03-02T03:39:36;99877.72;;;5.49;100.00
60437;BME280;46289;51.992;4.498;2024-03-02T03:41:41;99883.78;;;5.49;100.00
60437;BME280;46289;51.992;4.498;2024-03-02T03:43:47;99872.53;;;5.49;100.00
60437;BME280;46289;51.992;4.498;2024-03-02T03:45:54;99880.28;;;5.50;100.00
60437;BME280;46289;51.992;4.498;2024-03-02T03:47:59;99887.25;;;5.50;100.00
60437;BME280;46289;51.992;4.498;2024-03-02T03:50:06;99878.56;;;5.49;100.00
60437;BME280;46289;51.992;4.498;2024-03-02T03:52:11;99881.03;;;5.54;100.00
60437;BME280;46289;51.992;4.498;2024-03-02T03:54:16;99875.84;;;5.53;100.00
60437;BME280;46289;51.992;4.498;2024-03-02T03:56:22;99879.53;;;5.47;100.00
60437;BME280;46289;51.992;4.498;2024-03-02T03:58:27;99888.03;;;5.52;100.00
60437;BME280;46289;51.992;4.498;2024-03-02T04:00:32;99880.50;;;5.44;100.00
60437;BME280;46289;51.992;4.498;2024-03-02T04:02:42;99886.63;;;5.43;100.00
60437;BME280;46289;51.992;4.498;2024-03-02T04:04:47;99888.25;;;5.46;100.00
60437;BME280;46289;51.992;4.498;2024-03-02T04:06:52;99890.91;;;5.44;100.00
60437;BME280;46289;51.992;4.498;2024-03-02T04:08:57;99880.66;;;5.40;100.00
60437;BME280;46289;51.992;4.498;2024-03-02T04:11:02;99888.50;;;5.40;100.00
60437;BME280;46289;51.992;4.498;2024-03-02T04:13:09;99897.31;;;5.36;100.00
60437;BME280;46289;51.992;4.498;2024-03-02T04:15:14;99892.91;;;5.38;100.00
60437;BME280;46289;51.992;4.498;2024-03-02T04:17:21;99895.59;;;5.35;100.00
60437;BME280;46289;51.992;4.498;2024-03-02T04:19:28;99898.41;;;5.28;100.00
60437;BME280;46289;51.992;4.498;2024-03-02T04:21:34;99894.09;;;5.27;100.00
60437;BME280;46289;51.992;4.498;2024-03-02T04:23:39;99901.78;;;5.32;100.00
60437;BME280;46289;51.992;4.498;2024-03-02T04:25:44;99896.44;;;5.35;100.00
60437;BME280;46289;51.992;4.498;2024-03-02T04:27:49;99889.78;;;5.26;100.00
60437;BME280;46289;51.992;4.498;2024-03-02T04:29:54;99893.38;;;5.24;100.00
60437;BME280;46289;51.992;4.498;2024-03-02T04:31:59;99898.66;;;5.21;100.00
60437;BME280;46289;51.992;4.498;2024-03-02T04:34:04;99896.13;;;5.19;100.00
60437;BME280;46289;51.992;4.498;2024-03-02T04:36:12;99894.31;;;5.21;100.00
60437;BME280;46289;51.992;4.498;2024-03-02T04:38:17;99897.81;;;5.20;100.00
60437;BME280;46289;51.992;4.498;2024-03-02T04:40:24;99905.00;;;5.14;100.00
60437;BME280;46289;51.992;4.498;2024-03-02T04:42:29;99903.97;;;5.18;100.00
60437;BME280;46289;51.992;4.498;2024-03-02T04:44:31;99910.03;;;5.18;100.00
60437;BME280;46289;51.992;4.498;2024-03-02T04:46:36;99913.66;;;5.14;100.00
60437;BME280;46289;51.992;4.498;2024-03-02T04:48:41;99909.31;;;5.13;100.00
60437;BME280;46289;51.992;4.498;2024-03-02T04:50:46;99918.75;;;5.17;100.00
60437;BME280;46289;51.992;4.498;2024-03-02T04:52:54;99926.59;;;5.16;100.00
60437;BME280;46289;51.992;4.498;2024-03-02T04:54:59;99923.75;;;5.23;100.00
60437;BME280;46289;51.992;4.498;2024-03-02T04:57:26;99927.16;;;5.25;100.00
60437;BME280;46289;51.992;4.498;2024-03-02T04:59:31;99923.63;;;5.26;100.00
60437;BME280;46289;51.992;4.498;2024-03-02T05:01:36;99925.47;;;5.24;100.00
60437;BME280;46289;51.992;4.498;2024-03-02T05:03:39;99921.84;;;5.28;100.00
60437;BME280;46289;51.992;4.498;2024-03-02T05:05:43;99916.84;;;5.22;100.00
60437;BME280;46289;51.992;4.498;2024-03-02T05:07:49;99920.44;;;5.18;100.00
60437;BME280;46289;51.992;4.498;2024-03-02T05:09:55;99923.06;;;5.18;100.00
60437;BME280;46289;51.992;4.498;2024-03-02T05:12:00;99925.56;;;5.21;100.00
60437;BME280;46289;51.992;4.498;2024-03-02T05:14:20;99923.00;;;5.20;100.00
60437;BME280;46289;51.992;4.498;2024-03-02T05:16:25;99927.16;;;5.25;100.00
60437;BME280;46289;51.992;4.498;2024-03-02T05:18:27;99932.59;;;5.19;100.00
60437;BME280;46289;51.992;4.498;2024-03-02T05:20:32;99932.72;;;5.15;100.00
60437;BME280;46289;51.992;4.498;2024-03-02T05:22:37;99931.09;;;5.11;100.00
60437;BME280;46289;51.992;4.498;2024-03-02T05:24:42;99929.38;;;5.11;100.00
60437;BME280;46289;51.992;4.498;2024-03-02T05:26:50;99946.91;;;5.06;100.00
60437;BME280;46289;51.992;4.498;2024-03-02T05:28:52;99951.31;;;5.04;100.00
60437;BME280;46289;51.992;4.498;2024-03-02T05:30:57;99951.28;;;5.05;100.00
60437;BME280;46289;51.992;4.498;2024-03-02T05:33:06;99946.00;;;5.07;100.00
60437;BME280;46289;51.992;4.498;2024-03-02T05:35:11;99946.81;;;5.09;100.00
60437;BME280;46289;51.992;4.498;2024-03-02T05:37:19;99947.84;;;5.03;100.00
60437;BME280;46289;51.992;4.498;2024-03-02T05:39:24;99949.63;;;5.03;100.00
60437;BME280;46289;51.992;4.498;2024-03-02T05:41:29;99956.84;;;4.93;100.00
60437;BME280;46289;51.992;4.498;2024-03-02T05:43:37;99949.19;;;4.89;100.00
60437;BME280;46289;51.992;4.498;2024-03-02T05:45:42;99946.44;;;4.93;100.00
60437;BME280;46289;51.992;4.498;2024-03-02T05:47:47;99954.03;;;4.99;100.00
60437;BME280;46289;51.992;4.498;2024-03-02T05:49:52;99948.03;;;4.97;100.00
60437;BME280;46289;51.992;4.498;2024-03-02T05:51:59;99951.41;;;5.01;100.00
60437;BME280;46289;51.992;4.498;2024-03-02T05:54:05;99949.53;;;5.04;100.00
60437;BME280;46289;51.992;4.498;2024-03-02T05:56:10;99948.00;;;4.99;100.00
60437;BME280;46289;51.992;4.498;2024-03-02T05:58:15;99953.09;;;5.02;100.00
60437;BME280;46289;51.992;4.498;2024-03-02T06:00:32;99956.53;;;5.02;100.00
60437;BME280;46289;51.992;4.498;2024-03-02T06:02:39;99945.97;;;5.09;100.00
60437;BME280;46289;51.992;4.498;2024-03-02T06:04:44;99950.22;;;5.11;100.00
60437;BME280;46289;51.992;4.498;2024-03-02T06:06:48;99957.31;;;5.06;100.00
60437;BME280;46289;51.992;4.498;2024-03-02T06:08:56;99949.25;;;5.14;100.00
60437;BME280;46289;51.992;4.498;2024-03-02T06:11:01;99948.34;;;5.15;100.00
60437;BME280;46289;51.992;4.498;2024-03-02T06:13:06;99951.91;;;5.12;100.00
60437;BME280;46289;51.992;4.498;2024-03-02T06:15:09;99950.16;;;5.13;100.00
60437;BME280;46289;51.992;4.498;2024-03-02T06:17:17;99957.94;;;5.14;100.00
60437;BME280;46289;51.992;4.498;2024-03-02T06:19:24;99956.19;;;5.13;100.00
60437;BME280;46289;51.992;4.498;2024-03-02T06:21:29;99971.06;;;5.11;100.00
60437;BME280;46289;51.992;4.498;2024-03-02T06:23:35;99968.38;;;5.13;100.00
60437;BME280;46289;51.992;4.498;2024-03-02T06:25:40;99969.84;;;5.21;100.00
60437;BME280;46289;51.992;4.498;2024-03-02T06:27:45;99967.31;;;5.18;100.00
60437;BME280;46289;51.992;4.498;2024-03-02T06:29:50;99966.44;;;5.19;100.00
60437;BME280;46289;51.992;4.498;2024-03-02T06:31:58;99965.50;;;5.22;100.00
60437;BME280;46289;51.992;4.498;2024-03-02T06:34:05;99965.31;;;5.26;100.00
60437;BME280;46289;51.992;4.498;2024-03-02T06:36:10;99965.44;;;5.23;100.00
60437;BME280;46289;51.992;4.498;2024-03-02T06:38:17;99963.63;;;5.25;100.00
60437;BME280;46289;51.992;4.498;2024-03-02T06:40:23;99966.03;;;5.32;100.00
60437;BME280;46289;51.992;4.498;2024-03-02T06:42:28;99969.69;;;5.26;100.00
60437;BME280;46289;51.992;4.498;2024-03-02T06:44:35;99974.78;;;5.29;100.00
60437;BME280;46289;51.992;4.498;2024-03-02T06:46:40;99964.34;;;5.31;100.00
60437;BME280;46289;51.992;4.498;2024-03-02T06:48:42;99969.75;;;5.24;100.00
60437;BME280;46289;51.992;4.498;2024-03-02T06:50:50;99982.78;;;5.24;100.00
60437;BME280;46289;51.992;4.498;2024-03-02T06:52:56;99980.28;;;5.21;100.00
60437;BME280;46289;51.992;4.498;2024-03-02T06:54:59;99977.75;;;5.18;100.00
60437;BME280;46289;51.992;4.498;2024-03-02T06:57:04;99979.63;;;5.13;100.00
60437;BME280;46289;51.992;4.498;2024-03-02T06:59:09;99983.03;;;5.17;100.00
60437;BME280;46289;51.992;4.498;2024-03-02T07:01:14;99985.06;;;5.07;100.00
60437;BME280;46289;51.992;4.498;2024-03-02T07:03:19;99985.16;;;5.04;100.00
60437;BME280;46289;51.992;4.498;2024-03-02T07:05:26;99984.41;;;5.00;100.00
60437;BME280;46289;51.992;4.498;2024-03-02T07:07:33;99989.66;;;4.99;100.00
60437;BME280;46289;51.992;4.498;2024-03-02T07:09:39;100004.28;;;5.03;100.00
60437;BME280;46289;51.992;4.498;2024-03-02T07:11:41;99990.47;;;5.01;100.00
60437;BME280;46289;51.992;4.498;2024-03-02T07:13:49;99993.78;;;5.06;100.00
60437;BME280;46289;51.992;4.498;2024-03-02T07:15:54;99994.72;;;5.03;100.00
60437;BME280;46289;51.992;4.498;2024-03-02T07:18:25;99997.38;;;5.02;100.00
60437;BME280;46289;51.992;4.498;2024-03-02T07:20:30;100000.97;;;4.98;100.00
60437;BME280;46289;51.992;4.498;2024-03-02T07:22:38;99998.44;;;4.95;100.00
60437;BME280;46289;51.992;4.498;2024-03-02T07:24:45;100007.88;;;4.99;100.00
60437;BME280;46289;51.992;4.498;2024-03-02T07:26:51;99999.97;;;5.02;100.00
60437;BME280;46289;51.992;4.498;2024-03-02T07:28:56;100012.00;;;5.06;100.00
60437;BME280;46289;51.992;4.498;2024-03-02T07:31:02;100002.53;;;5.03;100.00
60437;BME280;46289;51.992;4.498;2024-03-02T07:33:08;100010.38;;;5.02;100.00
60437;BME280;46289;51.992;4.498;2024-03-02T07:35:13;100013.59;;;5.10;100.00
60437;BME280;46289;51.992;4.498;2024-03-02T07:37:20;100018.00;;;5.08;100.00
60437;BME280;46289;51.992;4.498;2024-03-02T07:39:28;100020.66;;;5.06;100.00
60437;BME280;46289;51.992;4.498;2024-03-02T07:41:31;100023.97;;;5.12;100.00
60437;BME280;46289;51.992;4.498;2024-03-02T07:43:36;100023.91;;;5.13;100.00
60437;BME280;46289;51.992;4.498;2024-03-02T07:45:41;100016.03;;;5.16;100.00
60437;BME280;46289;51.992;4.498;2024-03-02T07:47:47;100030.53;;;5.23;100.00
60437;BME280;46289;51.992;4.498;2024-03-02T07:49:52;100020.22;;;5.20;100.00
60437;BME280;46289;51.992;4.498;2024-03-02T07:51:58;100019.34;;;5.21;100.00
60437;BME280;46289;51.992;4.498;2024-03-02T07:54:03;100024.34;;;5.27;100.00
60437;BME280;46289;51.992;4.498;2024-03-02T07:56:14;100020.03;;;5.26;100.00
60437;BME280;46289;51.992;4.498;2024-03-02T07:58:24;100015.63;;;5.28;100.00
60437;BME280;46289;51.992;4.498;2024-03-02T08:00:29;100015.50;;;5.32;100.00
60437;BME280;46289;51.992;4.498;2024-03-02T08:02:31;100010.22;;;5.35;100.00
60437;BME280;46289;51.992;4.498;2024-03-02T08:04:36;100013.69;;;5.35;100.00
60437;BME280;46289;51.992;4.498;2024-03-02T08:06:41;100019.38;;;5.46;100.00
60437;BME280;46289;51.992;4.498;2024-03-02T08:08:46;100010.63;;;5.49;100.00
60437;BME280;46289;51.992;4.498;2024-03-02T08:10:52;100013.25;;;5.47;100.00
60437;BME280;46289;51.992;4.498;2024-03-02T08:13:02;100011.53;;;5.48;100.00
60437;BME280;46289;51.992;4.498;2024-03-02T08:15:07;100016.44;;;5.57;100.00
60437;BME280;46289;51.992;4.498;2024-03-02T08:17:12;100024.84;;;5.65;100.00
60437;BME280;46289;51.992;4.498;2024-03-02T08:19:15;100034.13;;;5.74;100.00
60437;BME280;46289;51.992;4.498;2024-03-02T08:21:20;100023.63;;;5.76;100.00
60437;BME280;46289;51.992;4.498;2024-03-02T08:23:26;100017.44;;;5.80;100.00
60437;BME280;46289;51.992;4.498;2024-03-02T08:25:31;100030.94;;;5.91;100.00
60437;BME280;46289;51.992;4.498;2024-03-02T08:27:36;100019.38;;;6.00;100.00
60437;BME280;46289;51.992;4.498;2024-03-02T08:29:44;100014.66;;;6.11;100.00
60437;BME280;46289;51.992;4.498;2024-03-02T08:31:49;100018.09;;;6.11;100.00
60437;BME280;46289;51.992;4.498;2024-03-02T08:33:56;100012.44;;;6.24;100.00
60437;BME280;46289;51.992;4.498;2024-03-02T08:36:04;100020.09;;;6.28;100.00
60437;BME280;46289;51.992;4.498;2024-03-02T08:38:12;100021.75;;;6.31;100.00
60437;BME280;46289;51.992;4.498;2024-03-02T08:40:17;100020.19;;;6.50;100.00
60437;BME280;46289;51.992;4.498;2024-03-02T08:42:24;100019.03;;;6.57;100.00
60437;BME280;46289;51.992;4.498;2024-03-02T08:44:26;100017.91;;;6.65;100.00
60437;BME280;46289;51.992;4.498;2024-03-02T08:46:34;100019.41;;;6.70;100.00
60437;BME280;46289;51.992;4.498;2024-03-02T08:48:37;100019.31;;;6.73;100.00
60437;BME280;46289;51.992;4.498;2024-03-02T08:50:41;100021.59;;;6.82;100.00
60437;BME280;46289;51.992;4.498;2024-03-02T08:52:47;100019.00;;;6.81;100.00
60437;BME280;46289;51.992;4.498;2024-03-02T08:54:52;100017.41;;;7.00;100.00
60437;BME280;46289;51.992;4.498;2024-03-02T08:56:54;100029.38;;;7.06;100.00
60437;BME280;46289;51.992;4.498;2024-03-02T08:59:00;100013.19;;;7.18;100.00
60437;BME280;46289;51.992;4.498;2024-03-02T09:01:05;100022.56;;;7.24;100.00
60437;BME280;46289;51.992;4.498;2024-03-02T09:03:14;100012.78;;;7.29;100.00
60437;BME280;46289;51.992;4.498;2024-03-02T09:05:19;100032.00;;;7.28;100.00
60437;BME280;46289;51.992;4.498;2024-03-02T09:07:26;100014.00;;;7.20;100.00
60437;BME280;46289;51.992;4.498;2024-03-02T09:09:32;100026.47;;;7.36;100.00
60437;BME280;46289;51.992;4.498;2024-03-02T09:11:35;100038.53;;;7.60;100.00
60437;BME280;46289;51.992;4.498;2024-03-02T09:13:40;100031.53;;;7.61;100.00
60437;BME280;46289;51.992;4.498;2024-03-02T09:15:46;100038.56;;;7.81;100.00
60437;BME280;46289;51.992;4.498;2024-03-02T09:17:51;100048.09;;;7.61;100.00
60437;BME280;46289;51.992;4.498;2024-03-02T09:19:59;100039.72;;;7.53;100.00
60437;BME280;46289;51.992;4.498;2024-03-02T09:22:09;100034.88;;;7.64;100.00
60437;BME280;46289;51.992;4.498;2024-03-02T09:24:15;100042.16;;;7.78;100.00
60437;BME280;46289;51.992;4.498;2024-03-02T09:26:20;100039.53;;;7.78;100.00
60437;BME280;46289;51.992;4.498;2024-03-02T09:28:26;100035.69;;;8.07;100.00
60437;BME280;46289;51.992;4.498;2024-03-02T09:30:33;100042.03;;;8.43;100.00
60437;BME280;46289;51.992;4.498;2024-03-02T09:32:38;100036.91;;;8.40;100.00
60437;BME280;46289;51.992;4.498;2024-03-02T09:34:43;100039.97;;;8.29;100.00
60437;BME280;46289;51.992;4.498;2024-03-02T09:36:53;100042.69;;;8.27;100.00
60437;BME280;46289;51.992;4.498;2024-03-02T09:38:58;100030.94;;;8.56;100.00
60437;BME280;46289;51.992;4.498;2024-03-02T09:41:06;100037.78;;;8.40;100.00
60437;BME280;46289;51.992;4.498;2024-03-02T09:43:11;100032.44;;;8.62;100.00
60437;BME280;46289;51.992;4.498;2024-03-02T09:45:17;100042.19;;;8.59;100.00
60437;BME280;46289;51.992;4.498;2024-03-02T09:47:24;100048.53;;;8.53;100.00
60437;BME280;46289;51.992;4.498;2024-03-02T09:49:29;100053.81;;;8.72;100.00
60437;BME280;46289;51.992;4.498;2024-03-02T09:51:33;100057.19;;;8.74;100.00
60437;BME280;46289;51.992;4.498;2024-03-02T09:53:41;100049.00;;;9.00;100.00
60437;BME280;46289;51.992;4.498;2024-03-02T09:55:46;100051.97;;;8.74;100.00
60437;BME280;46289;51.992;4.498;2024-03-02T09:57:52;100047.22;;;8.63;100.00
60437;BME280;46289;51.992;4.498;2024-03-02T09:59:58;100060.72;;;8.54;100.00
60437;BME280;46289;51.992;4.498;2024-03-02T10:02:06;100063.03;;;8.81;100.00
60437;BME280;46289;51.992;4.498;2024-03-02T10:04:12;100070.38;;;9.10;100.00
60437;BME280;46289;51.992;4.498;2024-03-02T10:06:23;100069.75;;;8.86;100.00
60437;BME280;46289;51.992;4.498;2024-03-02T10:08:45;100062.03;;;8.83;100.00
60437;BME280;46289;51.992;4.498;2024-03-02T10:10:54;100056.69;;;8.66;100.00
60437;BME280;46289;51.992;4.498;2024-03-02T10:13:07;100047.38;;;9.17;100.00
60437;BME280;46289;51.992;4.498;2024-03-02T10:15:25;100049.06;;;8.99;100.00
60437;BME280;46289;51.992;4.498;2024-03-02T10:17:34;100042.25;;;9.33;100.00
60437;BME280;46289;51.992;4.498;2024-03-02T10:19:43;100037.94;;;9.49;100.00
60437;BME280;46289;51.992;4.498;2024-03-02T10:21:51;100039.97;;;9.61;100.00
60437;BME280;46289;51.992;4.498;2024-03-02T10:24:09;100028.81;;;9.39;100.00
60437;BME280;46289;51.992;4.498;2024-03-02T10:26:16;100022.84;;;9.89;100.00
60437;BME280;46289;51.992;4.498;2024-03-02T10:28:23;100019.59;;;10.01;100.00
60437;BME280;46289;51.992;4.498;2024-03-02T10:30:32;100016.59;;;10.09;100.00
60437;BME280;46289;51.992;4.498;2024-03-02T10:32:38;100023.06;;;9.84;100.00
60437;BME280;46289;51.992;4.498;2024-03-02T10:34:46;100016.97;;;10.01;100.00
60437;BME280;46289;51.992;4.498;2024-03-02T10:36:52;100033.22;;;10.25;100.00
60437;BME280;46289;51.992;4.498;2024-03-02T10:38:56;100028.69;;;9.94;100.00
60437;BME280;46289;51.992;4.498;2024-03-02T10:41:05;100022.84;;;9.89;100.00
60437;BME280;46289;51.992;4.498;2024-03-02T10:43:11;100021.00;;;10.08;100.00
60437;BME280;46289;51.992;4.498;2024-03-02T10:45:17;100014.13;;;10.06;100.00
60437;BME280;46289;51.992;4.498;2024-03-02T10:47:27;100004.75;;;10.35;100.00
60437;BME280;46289;51.992;4.498;2024-03-02T10:49:34;100010.31;;;10.11;100.00
60437;BME280;46289;51.992;4.498;2024-03-02T10:51:40;99999.53;;;9.83;100.00
60437;BME280;46289;51.992;4.498;2024-03-02T10:53:46;100002.31;;;9.62;100.00
60437;BME280;46289;51.992;4.498;2024-03-02T10:55:55;100006.53;;;9.30;100.00
60437;BME280;46289;51.992;4.498;2024-03-02T10:58:11;100011.31;;;9.22;100.00
60437;BME280;46289;51.992;4.498;2024-03-02T11:00:18;100013.94;;;9.39;100.00
60437;BME280;46289;51.992;4.498;2024-03-02T11:02:29;100022.03;;;9.35;100.00
60437;BME280;46289;51.992;4.498;2024-03-02T11:04:33;100017.91;;;9.48;100.00
60437;BME280;46289;51.992;4.498;2024-03-02T11:06:41;100016.19;;;9.47;100.00